sensor_id;sensor_type;location;lat;lon;timestamp;pressure;altitude;pressure_sealevel;temperature;humidity
66021;BME280;52789;59.980;30.346;2023-05-16T00:01:38;101772.41;;;12.99;64.15
66021;BME280;52789;59.980;30.346;2023-05-16T00:04:03;101781.59;;;12.97;64.46
66021;BME280;52789;59.980;30.346;2023-05-16T00:06:29;101765.53;;;12.97;64.22
66021;BME280;52789;59.980;30.346;2023-05-16T00:08:56;101769.06;;;12.97;64.42
66021;BME280;52789;59.980;30.346;2023-05-16T00:11:21;101771.19;;;12.94;65.12
66021;BME280;52789;59.980;30.346;2023-05-16T00:13:47;101760.50;;;12.94;65.01
66021;BME280;52789;59.980;30.346;2023-05-16T00:16:12;101755.31;;;12.92;64.97
66021;BME280;52789;59.980;30.346;2023-05-16T00:18:38;101756.47;;;12.90;64.72
66021;BME280;52789;59.980;30.346;2023-05-16T00:21:04;101746.59;;;12.90;64.56
66021;BME280;52789;59.980;30.346;2023-05-16T00:23:30;101750.13;;;12.91;64.51
66021;BME280;52789;59.980;30.346;2023-05-16T00:25:55;101744.09;;;12.89;64.56
66021;BME280;52789;59.980;30.346;2023-05-16T00:28:21;101747.44;;;12.91;64.43
66021;BME280;52789;59.980;30.346;2023-05-16T00:30:46;101738.75;;;12.89;63.84
66021;BME280;52789;59.980;30.346;2023-05-16T00:33:11;101743.56;;;12.85;64.34
66021;BME280;52789;59.980;30.346;2023-05-16T00:35:37;101737.38;;;12.85;64.03
66021;BME280;52789;59.980;30.346;2023-05-16T00:38:02;101740.34;;;12.82;64.05
66021;BME280;52789;59.980;30.346;2023-05-16T00:40:27;101732.13;;;12.75;63.95
66021;BME280;52789;59.980;30.346;2023-05-16T00:42:53;101739.31;;;12.75;63.96
66021;BME280;52789;59.980;30.346;2023-05-16T00:45:19;101736.91;;;12.71;64.23
66021;BME280;52789;59.980;30.346;2023-05-16T00:47:44;101732.03;;;12.67;64.62
66021;BME280;52789;59.980;30.346;2023-05-16T00:50:09;101735.84;;;12.64;65.44
66021;BME280;52789;59.980;30.346;2023-05-16T00:52:35;101739.50;;;12.63;65.49
66021;BME280;52789;59.980;30.346;2023-05-16T00:55:01;101731.66;;;12.62;65.15
66021;BME280;52789;59.980;30.346;2023-05-16T00:57:26;101730.28;;;12.58;64.67
66021;BME280;52789;59.980;30.346;2023-05-16T00:59:52;101731.41;;;12.55;64.61
66021;BME280;52789;59.980;30.346;2023-05-16T01:02:20;101727.38;;;12.51;65.20
66021;BME280;52789;59.980;30.346;2023-05-16T01:04:45;101727.00;;;12.46;65.13
66021;BME280;52789;59.980;30.346;2023-05-16T01:07:12;101721.94;;;12.43;65.71
66021;BME280;52789;59.980;30.346;2023-05-16T01:09:38;101723.06;;;12.40;65.46
66021;BME280;52789;59.980;30.346;2023-05-16T01:12:08;101726.88;;;12.38;66.18
66021;BME280;52789;59.980;30.346;2023-05-16T01:17:35;101725.16;;;12.47;65.27
66021;BME280;52789;59.980;30.346;2023-05-16T01:22:29;101725.59;;;12.42;64.89
66021;BME280;52789;59.980;30.346;2023-05-16T01:27:41;101737.88;;;12.35;65.42
66021;BME280;52789;59.980;30.346;2023-05-16T01:30:13;101731.84;;;12.33;65.88
66021;BME280;52789;59.980;30.346;2023-05-16T01:32:40;101730.16;;;12.32;65.21
66021;BME280;52789;59.980;30.346;2023-05-16T01:35:05;101731.47;;;12.28;66.62
66021;BME280;52789;59.980;30.346;2023-05-16T01:37:37;101723.28;;;12.29;65.68
66021;BME280;52789;59.980;30.346;2023-05-16T01:40:07;101723.44;;;12.28;66.47
66021;BME280;52789;59.980;30.346;2023-05-16T01:42:34;101710.94;;;12.28;66.00
66021;BME280;52789;59.980;30.346;2023-05-16T01:45:04;101717.81;;;12.31;66.36
66021;BME280;52789;59.980;30.346;2023-05-16T01:47:31;101716.13;;;12.30;66.34
66021;BME280;52789;59.980;30.346;2023-05-16T01:50:07;101711.63;;;12.30;66.26
66021;BME280;52789;59.980;30.346;2023-05-16T01:52:38;101715.13;;;12.31;66.32
66021;BME280;52789;59.980;30.346;2023-05-16T01:55:05;101705.44;;;12.30;66.43
66021;BME280;52789;59.980;30.346;2023-05-16T01:57:34;101707.13;;;12.31;66.05
66021;BME280;52789;59.980;30.346;2023-05-16T02:00:00;101702.63;;;12.31;65.75
66021;BME280;52789;59.980;30.346;2023-05-16T02:02:25;101698.13;;;12.32;66.04
66021;BME280;52789;59.980;30.346;2023-05-16T02:04:50;101699.78;;;12.33;66.11
66021;BME280;52789;59.980;30.346;2023-05-16T02:07:16;101697.97;;;12.33;65.73
66021;BME280;52789;59.980;30.346;2023-05-16T02:09:41;101695.13;;;12.35;65.51
66021;BME280;52789;59.980;30.346;2023-05-16T02:12:07;101688.94;;;12.34;65.88
66021;BME280;52789;59.980;30.346;2023-05-16T02:14:32;101687.81;;;12.37;65.85
66021;BME280;52789;59.980;30.346;2023-05-16T02:16:58;101694.53;;;12.41;64.89
66021;BME280;52789;59.980;30.346;2023-05-16T02:19:23;101701.44;;;12.44;65.41
66021;BME280;52789;59.980;30.346;2023-05-16T02:21:49;101706.31;;;12.48;64.91
66021;BME280;52789;59.980;30.346;2023-05-16T02:24:14;101701.34;;;12.53;65.01
66021;BME280;52789;59.980;30.346;2023-05-16T02:26:39;101693.69;;;12.58;65.05
66021;BME280;52789;59.980;30.346;2023-05-16T02:29:05;101693.91;;;12.65;64.62
66021;BME280;52789;59.980;30.346;2023-05-16T02:31:31;101695.28;;;12.69;64.35
66021;BME280;52789;59.980;30.346;2023-05-16T02:33:57;101696.53;;;12.75;64.23
66021;BME280;52789;59.980;30.346;2023-05-16T02:36:23;101704.78;;;12.81;63.94
66021;BME280;52789;59.980;30.346;2023-05-16T02:38:48;101702.16;;;12.89;63.75
66021;BME280;52789;59.980;30.346;2023-05-16T02:41:13;101696.56;;;13.00;63.24
66021;BME280;52789;59.980;30.346;2023-05-16T02:43:39;101693.13;;;13.08;63.29
66021;BME280;52789;59.980;30.346;2023-05-16T02:46:04;101685.84;;;13.18;62.67
66021;BME280;52789;59.980;30.346;2023-05-16T02:48:30;101685.47;;;13.31;62.42
66021;BME280;52789;59.980;30.346;2023-05-16T02:50:55;101680.97;;;13.40;61.53
66021;BME280;52789;59.980;30.346;2023-05-16T02:53:21;101677.34;;;13.49;60.98
66021;BME280;52789;59.980;30.346;2023-05-16T02:55:46;101679.06;;;13.58;60.07
66021;BME280;52789;59.980;30.346;2023-05-16T02:58:12;101675.31;;;13.77;60.19
66021;BME280;52789;59.980;30.346;2023-05-16T03:00:37;101674.88;;;13.98;59.97
66021;BME280;52789;59.980;30.346;2023-05-16T03:03:02;101672.97;;;14.40;59.12
66021;BME280;52789;59.980;30.346;2023-05-16T03:05:28;101673.66;;;15.15;57.43
66021;BME280;52789;59.980;30.346;2023-05-16T03:07:53;101673.78;;;16.25;52.62
66021;BME280;52789;59.980;30.346;2023-05-16T03:10:19;101670.16;;;17.39;48.68
66021;BME280;52789;59.980;30.346;2023-05-16T03:12:44;101667.28;;;18.42;45.75
66021;BME280;52789;59.980;30.346;2023-05-16T03:15:10;101670.78;;;19.06;44.30
66021;BME280;52789;59.980;30.346;2023-05-16T03:17:35;101665.97;;;19.02;43.30
66021;BME280;52789;59.980;30.346;2023-05-16T03:20:01;101677.19;;;18.99;43.58
66021;BME280;52789;59.980;30.346;2023-05-16T03:22:28;101668.06;;;19.34;43.67
66021;BME280;52789;59.980;30.346;2023-05-16T03:24:53;101664.41;;;19.42;44.13
66021;BME280;52789;59.980;30.346;2023-05-16T03:27:19;101669.28;;;19.25;43.77
66021;BME280;52789;59.980;30.346;2023-05-16T03:29:44;101670.75;;;19.00;43.16
66021;BME280;52789;59.980;30.346;2023-05-16T03:32:10;101665.59;;;18.19;44.35
66021;BME280;52789;59.980;30.346;2023-05-16T03:34:35;101661.50;;;17.43;46.35
66021;BME280;52789;59.980;30.346;2023-05-16T03:37:01;101654.34;;;17.06;47.57
66021;BME280;52789;59.980;30.346;2023-05-16T03:39:26;101657.63;;;16.79;48.59
66021;BME280;52789;59.980;30.346;2023-05-16T03:41:51;101662.88;;;16.49;49.57
66021;BME280;52789;59.980;30.346;2023-05-16T03:44:20;101653.16;;;16.17;50.30
66021;BME280;52789;59.980;30.346;2023-05-16T03:46:45;101658.56;;;15.78;52.07
66021;BME280;52789;59.980;30.346;2023-05-16T03:49:10;101651.09;;;15.49;52.57
66021;BME280;52789;59.980;30.346;2023-05-16T03:51:36;101650.31;;;15.24;53.93
66021;BME280;52789;59.980;30.346;2023-05-16T03:54:01;101642.50;;;15.06;54.16
66021;BME280;52789;59.980;30.346;2023-05-16T03:56:26;101646.53;;;14.94;54.85
66021;BME280;52789;59.980;30.346;2023-05-16T03:58:52;101634.47;;;14.90;54.79
66021;BME280;52789;59.980;30.346;2023-05-16T04:01:17;101644.50;;;14.96;54.74
66021;BME280;52789;59.980;30.346;2023-05-16T04:03:43;101647.19;;;15.04;54.89
66021;BME280;52789;59.980;30.346;2023-05-16T04:06:08;101643.03;;;15.49;54.15
66021;BME280;52789;59.980;30.346;2023-05-16T04:08:33;101646.78;;;16.64;50.94
66021;BME280;52789;59.980;30.346;2023-05-16T04:10:59;101640.13;;;17.86;48.25
66021;BME280;52789;59.980;30.346;2023-05-16T04:13:24;101633.28;;;19.53;44.24
66021;BME280;52789;59.980;30.346;2023-05-16T04:19:11;101642.59;;;20.85;40.64
66021;BME280;52789;59.980;30.346;2023-05-16T04:21:37;101636.94;;;21.40;38.68
66021;BME280;52789;59.980;30.346;2023-05-16T04:24:02;101644.56;;;21.56;38.20
66021;BME280;52789;59.980;30.346;2023-05-16T04:26:28;101635.66;;;21.36;39.69
66021;BME280;52789;59.980;30.346;2023-05-16T04:28:54;101640.25;;;21.22;38.66
66021;BME280;52789;59.980;30.346;2023-05-16T04:31:20;101634.44;;;21.05;39.72
66021;BME280;52789;59.980;30.346;2023-05-16T04:33:47;101635.22;;;21.39;38.42
66021;BME280;52789;59.980;30.346;2023-05-16T04:36:12;101623.75;;;21.94;37.48
66021;BME280;52789;59.980;30.346;2023-05-16T04:38:38;101620.84;;;22.34;36.48
66021;BME280;52789;59.980;30.346;2023-05-16T04:41:03;101624.06;;;22.18;36.69
66021;BME280;52789;59.980;30.346;2023-05-16T04:43:28;101629.00;;;21.89;37.56
66021;BME280;52789;59.980;30.346;2023-05-16T04:45:54;101626.19;;;21.71;37.18
66021;BME280;52789;59.980;30.346;2023-05-16T04:48:20;101627.34;;;21.30;38.14
66021;BME280;52789;59.980;30.346;2023-05-16T04:50:45;101634.06;;;20.88;38.56
66021;BME280;52789;59.980;30.346;2023-05-16T04:53:11;101626.34;;;20.72;39.40
66021;BME280;52789;59.980;30.346;2023-05-16T04:55:36;101633.22;;;20.55;39.52
66021;BME280;52789;59.980;30.346;2023-05-16T04:58:01;101619.00;;;20.33;39.86
66021;BME280;52789;59.980;30.346;2023-05-16T05:00:27;101624.63;;;20.25;40.81
66021;BME280;52789;59.980;30.346;2023-05-16T05:02:52;101618.34;;;20.04;40.47
66021;BME280;52789;59.980;30.346;2023-05-16T05:05:18;101623.47;;;19.93;41.19
66021;BME280;52789;59.980;30.346;2023-05-16T05:07:44;101624.94;;;19.89;41.15
66021;BME280;52789;59.980;30.346;2023-05-16T05:10:09;101618.22;;;19.71;41.44
66021;BME280;52789;59.980;30.346;2023-05-16T05:12:35;101623.72;;;19.15;42.46
66021;BME280;52789;59.980;30.346;2023-05-16T05:15:01;101621.75;;;18.75;43.66
66021;BME280;52789;59.980;30.346;2023-05-16T05:17:26;101616.47;;;18.45;44.58
66021;BME280;52789;59.980;30.346;2023-05-16T05:19:52;101620.34;;;18.36;45.20
66021;BME280;52789;59.980;30.346;2023-05-16T05:22:17;101611.22;;;18.37;45.29
66021;BME280;52789;59.980;30.346;2023-05-16T05:24:42;101618.34;;;18.45;46.01
66021;BME280;52789;59.980;30.346;2023-05-16T05:27:08;101616.44;;;18.39;45.17
66021;BME280;52789;59.980;30.346;2023-05-16T05:29:33;101606.63;;;18.31;45.67
66021;BME280;52789;59.980;30.346;2023-05-16T05:31:59;101604.13;;;18.30;45.50
66021;BME280;52789;59.980;30.346;2023-05-16T05:34:24;101606.56;;;18.24;45.63
66021;BME280;52789;59.980;30.346;2023-05-16T05:36:50;101605.09;;;18.22;45.94
66021;BME280;52789;59.980;30.346;2023-05-16T05:39:15;101601.56;;;18.21;45.95
66021;BME280;52789;59.980;30.346;2023-05-16T05:41:41;101601.81;;;18.26;45.97
66021;BME280;52789;59.980;30.346;2023-05-16T05:44:06;101600.84;;;18.34;45.89
66021;BME280;52789;59.980;30.346;2023-05-16T05:46:31;101595.44;;;18.34;45.76
66021;BME280;52789;59.980;30.346;2023-05-16T05:48:57;101583.22;;;18.17;46.45
66021;BME280;52789;59.980;30.346;2023-05-16T05:51:23;101598.13;;;18.13;46.73
66021;BME280;52789;59.980;30.346;2023-05-16T05:53:52;101592.25;;;18.24;46.35
66021;BME280;52789;59.980;30.346;2023-05-16T05:56:18;101584.59;;;18.27;46.33
66021;BME280;52789;59.980;30.346;2023-05-16T05:58:45;101591.66;;;18.29;45.89
66021;BME280;52789;59.980;30.346;2023-05-16T06:01:10;101581.75;;;18.36;45.91
66021;BME280;52789;59.980;30.346;2023-05-16T06:03:36;101585.66;;;18.54;46.42
66021;BME280;52789;59.980;30.346;2023-05-16T06:06:02;101583.28;;;18.66;46.01
66021;BME280;52789;59.980;30.346;2023-05-16T06:08:28;101586.00;;;18.66;45.18
66021;BME280;52789;59.980;30.346;2023-05-16T06:10:53;101593.25;;;18.66;45.39
66021;BME280;52789;59.980;30.346;2023-05-16T06:13:18;101574.56;;;18.64;44.49
66021;BME280;52789;59.980;30.346;2023-05-16T06:15:48;101577.91;;;18.66;45.18
66021;BME280;52789;59.980;30.346;2023-05-16T06:18:13;101575.56;;;18.84;45.46
66021;BME280;52789;59.980;30.346;2023-05-16T06:20:38;101575.22;;;19.01;44.81
66021;BME280;52789;59.980;30.346;2023-05-16T06:23:04;101572.22;;;19.17;43.61
66021;BME280;52789;59.980;30.346;2023-05-16T06:25:29;101562.50;;;19.29;43.79
66021;BME280;52789;59.980;30.346;2023-05-16T06:27:55;101575.69;;;19.45;44.05
66021;BME280;52789;59.980;30.346;2023-05-16T06:30:20;101573.47;;;19.56;42.98
66021;BME280;52789;59.980;30.346;2023-05-16T06:32:46;101571.75;;;19.48;42.93
66021;BME280;52789;59.980;30.346;2023-05-16T06:35:11;101571.53;;;19.49;43.60
66021;BME280;52789;59.980;30.346;2023-05-16T06:37:36;101568.84;;;19.49;43.92
66021;BME280;52789;59.980;30.346;2023-05-16T06:40:02;101560.09;;;19.41;43.72
66021;BME280;52789;59.980;30.346;2023-05-16T06:42:27;101568.13;;;19.34;43.47
66021;BME280;52789;59.980;30.346;2023-05-16T06:44:53;101563.97;;;19.32;43.47
66021;BME280;52789;59.980;30.346;2023-05-16T06:47:18;101554.25;;;19.37;43.50
66021;BME280;52789;59.980;30.346;2023-05-16T06:49:43;101552.63;;;19.43;43.37
66021;BME280;52789;59.980;30.346;2023-05-16T06:52:09;101553.03;;;19.46;43.16
66021;BME280;52789;59.980;30.346;2023-05-16T06:54:34;101553.50;;;19.57;42.46
66021;BME280;52789;59.980;30.346;2023-05-16T06:57:00;101540.44;;;19.60;42.20
66021;BME280;52789;59.980;30.346;2023-05-16T06:59:25;101542.13;;;19.68;41.67
66021;BME280;52789;59.980;30.346;2023-05-16T07:01:50;101545.25;;;19.71;40.09
66021;BME280;52789;59.980;30.346;2023-05-16T07:04:16;101541.53;;;19.79;40.60
66021;BME280;52789;59.980;30.346;2023-05-16T07:06:41;101541.97;;;19.89;41.02
66021;BME280;52789;59.980;30.346;2023-05-16T07:09:07;101537.38;;;19.90;40.22
66021;BME280;52789;59.980;30.346;2023-05-16T07:11:35;101538.84;;;19.92;39.72
66021;BME280;52789;59.980;30.346;2023-05-16T07:14:00;101531.19;;;20.02;40.00
66021;BME280;52789;59.980;30.346;2023-05-16T07:16:25;101534.09;;;20.14;40.09
66021;BME280;52789;59.980;30.346;2023-05-16T07:18:55;101526.22;;;20.26;38.80
66021;BME280;52789;59.980;30.346;2023-05-16T07:21:21;101528.72;;;20.34;38.18
66021;BME280;52789;59.980;30.346;2023-05-16T07:23:46;101519.97;;;20.38;37.30
66021;BME280;52789;59.980;30.346;2023-05-16T07:26:11;101527.03;;;20.39;36.57
66021;BME280;52789;59.980;30.346;2023-05-16T07:28:36;101512.06;;;20.44;37.38
66021;BME280;52789;59.980;30.346;2023-05-16T07:31:02;101523.31;;;20.47;37.10
66021;BME280;52789;59.980;30.346;2023-05-16T07:33:27;101520.19;;;20.50;35.97
66021;BME280;52789;59.980;30.346;2023-05-16T07:35:53;101522.50;;;20.53;36.42
66021;BME280;52789;59.980;30.346;2023-05-16T07:38:19;101514.38;;;20.53;35.39
66021;BME280;52789;59.980;30.346;2023-05-16T07:40:45;101513.09;;;20.62;35.94
66021;BME280;52789;59.980;30.346;2023-05-16T07:43:10;101514.94;;;20.75;36.11
66021;BME280;52789;59.980;30.346;2023-05-16T07:45:35;101510.13;;;20.90;35.35
66021;BME280;52789;59.980;30.346;2023-05-16T07:48:01;101499.28;;;20.97;35.19
66021;BME280;52789;59.980;30.346;2023-05-16T07:50:28;101501.56;;;21.00;34.87
66021;BME280;52789;59.980;30.346;2023-05-16T07:52:53;101493.47;;;20.93;34.71
66021;BME280;52789;59.980;30.346;2023-05-16T07:55:18;101497.81;;;21.01;34.93
66021;BME280;52789;59.980;30.346;2023-05-16T07:57:46;101499.03;;;21.05;34.54
66021;BME280;52789;59.980;30.346;2023-05-16T08:00:12;101494.00;;;21.15;34.42
66021;BME280;52789;59.980;30.346;2023-05-16T08:02:38;101490.69;;;21.13;34.54
66021;BME280;52789;59.980;30.346;2023-05-16T08:05:03;101495.25;;;21.26;35.35
66021;BME280;52789;59.980;30.346;2023-05-16T08:07:55;101491.47;;;21.27;33.56
66021;BME280;52789;59.980;30.346;2023-05-16T08:10:20;101502.94;;;21.29;33.41
66021;BME280;52789;59.980;30.346;2023-05-16T08:12:50;101486.06;;;21.27;34.04
66021;BME280;52789;59.980;30.346;2023-05-16T08:15:18;101497.25;;;21.37;34.45
66021;BME280;52789;59.980;30.346;2023-05-16T08:17:44;101506.88;;;21.40;33.81
66021;BME280;52789;59.980;30.346;2023-05-16T08:20:09;101494.34;;;21.39;34.24
66021;BME280;52789;59.980;30.346;2023-05-16T08:22:35;101491.84;;;21.44;34.81
66021;BME280;52789;59.980;30.346;2023-05-16T08:25:00;101490.13;;;21.49;34.19
66021;BME280;52789;59.980;30.346;2023-05-16T08:27:26;101498.38;;;21.61;34.91
66021;BME280;52789;59.980;30.346;2023-05-16T08:29:52;101488.75;;;21.72;34.26
66021;BME280;52789;59.980;30.346;2023-05-16T08:32:17;101487.22;;;21.82;34.15
66021;BME280;52789;59.980;30.346;2023-05-16T08:34:43;101486.94;;;21.90;34.88
66021;BME280;52789;59.980;30.346;2023-05-16T08:37:08;101488.31;;;22.06;34.04
66021;BME280;52789;59.980;30.346;2023-05-16T08:39:34;101480.56;;;22.10;33.42
66021;BME280;52789;59.980;30.346;2023-05-16T08:41:59;101476.22;;;22.02;34.24
66021;BME280;52789;59.980;30.346;2023-05-16T08:44:25;101485.56;;;22.13;34.50
66021;BME280;52789;59.980;30.346;2023-05-16T08:46:51;101476.69;;;22.24;33.91
66021;BME280;52789;59.980;30.346;2023-05-16T08:49:20;101475.75;;;22.37;33.85
66021;BME280;52789;59.980;30.346;2023-05-16T08:51:46;101476.28;;;22.45;34.08
66021;BME280;52789;59.980;30.346;2023-05-16T08:54:12;101469.69;;;22.60;33.48
66021;BME280;52789;59.980;30.346;2023-05-16T08:56:37;101481.28;;;22.67;33.32
66021;BME280;52789;59.980;30.346;2023-05-16T08:59:05;101468.78;;;22.66;33.27
66021;BME280;52789;59.980;30.346;2023-05-16T09:01:31;101473.59;;;22.64;33.56
66021;BME280;52789;59.980;30.346;2023-05-16T09:03:57;101473.59;;;22.64;34.19
66021;BME280;52789;59.980;30.346;2023-05-16T09:06:22;101471.34;;;22.61;33.81
66021;BME280;52789;59.980;30.346;2023-05-16T09:08:49;101471.75;;;22.39;33.93
66021;BME280;52789;59.980;30.346;2023-05-16T09:11:14;101465.81;;;22.24;34.21
66021;BME280;52789;59.980;30.346;2023-05-16T09:13:39;101463.91;;;22.06;34.33
66021;BME280;52789;59.980;30.346;2023-05-16T09:16:11;101446.81;;;22.06;34.92
66021;BME280;52789;59.980;30.346;2023-05-16T09:18:38;101450.88;;;22.15;35.34
66021;BME280;52789;59.980;30.346;2023-05-16T09:21:04;101453.75;;;22.20;34.96
66021;BME280;52789;59.980;30.346;2023-05-16T09:23:30;101451.63;;;22.29;34.44
66021;BME280;52789;59.980;30.346;2023-05-16T09:25:56;101447.44;;;22.26;34.00
66021;BME280;52789;59.980;30.346;2023-05-16T09:28:21;101449.59;;;22.42;34.58
66021;BME280;52789;59.980;30.346;2023-05-16T09:30:47;101445.91;;;22.55;34.60
66021;BME280;52789;59.980;30.346;2023-05-16T09:33:13;101447.97;;;22.60;34.56
66021;BME280;52789;59.980;30.346;2023-05-16T09:35:38;101445.84;;;22.62;34.69
66021;BME280;52789;59.980;30.346;2023-05-16T09:38:03;101447.06;;;22.66;33.80
66021;BME280;52789;59.980;30.346;2023-05-16T09:40:29;101446.59;;;22.69;33.74
66021;BME280;52789;59.980;30.346;2023-05-16T09:43:01;101441.91;;;22.76;33.98
66021;BME280;52789;59.980;30.346;2023-05-16T09:45:27;101441.63;;;22.84;34.17
66021;BME280;52789;59.980;30.346;2023-05-16T09:47:52;101441.03;;;22.82;33.49
66021;BME280;52789;59.980;30.346;2023-05-16T09:50:18;101435.59;;;22.82;34.05
66021;BME280;52789;59.980;30.346;2023-05-16T09:52:43;101444.81;;;22.81;33.83
66021;BME280;52789;59.980;30.346;2023-05-16T09:55:09;101431.06;;;22.76;33.83
66021;BME280;52789;59.980;30.346;2023-05-16T09:57:37;101427.72;;;22.74;33.67
66021;BME280;52789;59.980;30.346;2023-05-16T10:00:05;101424.41;;;22.72;33.15
66021;BME280;52789;59.980;30.346;2023-05-16T10:02:32;101428.34;;;22.76;33.25
66021;BME280;52789;59.980;30.346;2023-05-16T10:04:58;101414.25;;;22.67;33.72
66021;BME280;52789;59.980;30.346;2023-05-16T10:07:24;101411.88;;;22.52;34.13
66021;BME280;52789;59.980;30.346;2023-05-16T10:09:49;101414.84;;;22.33;32.65
66021;BME280;52789;59.980;30.346;2023-05-16T10:12:15;101415.28;;;22.30;32.85
66021;BME280;52789;59.980;30.346;2023-05-16T10:14:40;101420.31;;;22.26;32.65
66021;BME280;52789;59.980;30.346;2023-05-16T10:17:06;101416.03;;;22.37;32.17
66021;BME280;52789;59.980;30.346;2023-05-16T10:19:34;101408.88;;;22.42;32.24
66021;BME280;52789;59.980;30.346;2023-05-16T10:22:01;101406.63;;;22.58;32.15
66021;BME280;52789;59.980;30.346;2023-05-16T10:24:30;101400.69;;;22.85;32.68
66021;BME280;52789;59.980;30.346;2023-05-16T10:26:58;101410.31;;;23.00;32.46
66021;BME280;52789;59.980;30.346;2023-05-16T10:29:24;101404.50;;;22.96;32.25
66021;BME280;52789;59.980;30.346;2023-05-16T10:31:49;101397.16;;;22.85;32.37
66021;BME280;52789;59.980;30.346;2023-05-16T10:34:15;101399.97;;;22.72;33.15
66021;BME280;52789;59.980;30.346;2023-05-16T10:36:42;101392.53;;;22.67;33.50
66021;BME280;52789;59.980;30.346;2023-05-16T10:39:08;101404.06;;;22.81;33.25
66021;BME280;52789;59.980;30.346;2023-05-16T10:41:34;101391.06;;;23.01;32.43
66021;BME280;52789;59.980;30.346;2023-05-16T10:43:59;101397.16;;;23.15;31.98
66021;BME280;52789;59.980;30.346;2023-05-16T10:46:26;101402.03;;;23.25;32.60
66021;BME280;52789;59.980;30.346;2023-05-16T10:48:53;101406.25;;;23.51;32.58
66021;BME280;52789;59.980;30.346;2023-05-16T10:51:39;101396.81;;;23.53;31.40
66021;BME280;52789;59.980;30.346;2023-05-16T10:54:05;101383.31;;;23.46;31.76
66021;BME280;52789;59.980;30.346;2023-05-16T10:56:32;101398.22;;;23.44;31.67
66021;BME280;52789;59.980;30.346;2023-05-16T10:58:59;101392.06;;;23.48;31.82
66021;BME280;52789;59.980;30.346;2023-05-16T11:01:27;101389.47;;;23.54;31.64
66021;BME280;52789;59.980;30.346;2023-05-16T11:06:23;101391.06;;;23.61;32.00
66021;BME280;52789;59.980;30.346;2023-05-16T11:14:22;101383.53;;;23.87;31.47
66021;BME280;52789;59.980;30.346;2023-05-16T11:16:49;101390.88;;;23.74;31.63
66021;BME280;52789;59.980;30.346;2023-05-16T11:19:27;101376.59;;;23.49;31.23
66021;BME280;52789;59.980;30.346;2023-05-16T11:24:52;101374.41;;;23.28;31.90
66021;BME280;52789;59.980;30.346;2023-05-16T11:27:21;101363.06;;;23.31;31.52
66021;BME280;52789;59.980;30.346;2023-05-16T11:29:47;101374.56;;;23.44;32.11
66021;BME280;52789;59.980;30.346;2023-05-16T11:32:13;101360.41;;;23.54;31.40
66021;BME280;52789;59.980;30.346;2023-05-16T11:34:38;101373.28;;;23.47;31.84
66021;BME280;52789;59.980;30.346;2023-05-16T11:37:04;101363.31;;;23.41;31.78
66021;BME280;52789;59.980;30.346;2023-05-16T11:39:30;101359.38;;;23.25;31.76
66021;BME280;52789;59.980;30.346;2023-05-16T11:41:56;101357.53;;;23.07;31.57
66021;BME280;52789;59.980;30.346;2023-05-16T11:44:22;101360.81;;;22.98;31.77
66021;BME280;52789;59.980;30.346;2023-05-16T11:46:47;101351.34;;;22.89;32.11
66021;BME280;52789;59.980;30.346;2023-05-16T11:49:12;101351.84;;;22.97;32.64
66021;BME280;52789;59.980;30.346;2023-05-16T11:51:38;101352.56;;;23.04;32.63
66021;BME280;52789;59.980;30.346;2023-05-16T11:54:04;101346.69;;;23.07;32.40
66021;BME280;52789;59.980;30.346;2023-05-16T11:56:30;101346.38;;;23.15;32.45
66021;BME280;52789;59.980;30.346;2023-05-16T11:58:56;101334.56;;;23.22;32.40
66021;BME280;52789;59.980;30.346;2023-05-16T12:01:23;101338.94;;;23.23;31.91
66021;BME280;52789;59.980;30.346;2023-05-16T12:03:57;101345.97;;;23.12;32.21
66021;BME280;52789;59.980;30.346;2023-05-16T12:06:23;101336.03;;;23.06;31.67
66021;BME280;52789;59.980;30.346;2023-05-16T12:08:49;101337.19;;;22.86;31.74
66021;BME280;52789;59.980;30.346;2023-05-16T12:11:14;101336.47;;;22.73;32.25
66021;BME280;52789;59.980;30.346;2023-05-16T12:13:40;101334.44;;;22.68;32.54
66021;BME280;52789;59.980;30.346;2023-05-16T12:16:05;101339.38;;;22.60;32.68
66021;BME280;52789;59.980;30.346;2023-05-16T12:18:30;101332.44;;;22.45;32.15
66021;BME280;52789;59.980;30.346;2023-05-16T12:20:56;101326.03;;;22.21;32.53
66021;BME280;52789;59.980;30.346;2023-05-16T12:23:21;101329.88;;;22.14;32.64
66021;BME280;52789;59.980;30.346;2023-05-16T12:25:46;101328.94;;;22.02;33.33
66021;BME280;52789;59.980;30.346;2023-05-16T12:28:13;101341.09;;;21.92;33.43
66021;BME280;52789;59.980;30.346;2023-05-16T12:30:42;101335.81;;;21.79;33.71
66021;BME280;52789;59.980;30.346;2023-05-16T12:33:09;101336.75;;;21.67;33.59
66021;BME280;52789;59.980;30.346;2023-05-16T12:35:37;101329.94;;;21.57;33.72
66021;BME280;52789;59.980;30.346;2023-05-16T12:38:03;101325.66;;;21.50;33.83
66021;BME280;52789;59.980;30.346;2023-05-16T12:40:29;101318.63;;;21.42;34.29
66021;BME280;52789;59.980;30.346;2023-05-16T12:42:55;101305.72;;;21.38;34.55
66021;BME280;52789;59.980;30.346;2023-05-16T12:45:20;101312.63;;;21.33;34.48
66021;BME280;52789;59.980;30.346;2023-05-16T12:47:46;101307.81;;;21.36;34.47
66021;BME280;52789;59.980;30.346;2023-05-16T12:50:12;101306.28;;;21.46;34.33
66021;BME280;52789;59.980;30.346;2023-05-16T12:55:14;101294.91;;;21.81;34.71
66021;BME280;52789;59.980;30.346;2023-05-16T12:57:40;101295.91;;;21.86;34.23
66021;BME280;52789;59.980;30.346;2023-05-16T13:00:06;101298.53;;;21.93;34.10